Weather observations for the past three days for
Scottsboro Municipal Airport
Imperial (Metric)
Date Time (cdt) Wind (mph) Vis. (mi.) Weather Sky Cond. Temperature (ºF) Relative Humidity Wind Chill (°F) Heat Index (°F) Pressure Precipitation (in)
Air Dwpt 6 hour altimeter (in) sea level (mb) 1 hr 3 hr 6 hr
Max. Min.
06 03:35 Vrbl 3 10.00 Overcast SCT045 BKN060 OVC075 77 75.2 94% 78 29.93 0.0
06 03:15 SW 7 9.00 Thunderstorm in Vicinity Rain SCT070 BKN080 BKN110 75.2 75.2 100% 73 29.94 0.0
06 02:55 Calm 10.00 Thunderstorm in Vicinity SCT070 BKN080 75.2 75.2 100% 73 29.94 0.0 0.01
06 02:35 N 8 9.00 Mostly Cloudy BKN070 75.2 75.2 100% 73 29.95 0.0
06 02:15 Calm 10.00 Overcast OVC065 75.2 75.2 100% 73 29.94 0.0
06 01:55 E 3 10.00 Thunderstorm in Vicinity OVC065 75.2 75.2 100% 73 29.94 0.0 0.02
06 01:35 Vrbl 3 10.00 Mostly Cloudy BKN065 75.2 75.2 100% 73 29.93 0.0
06 01:15 N 7 10.00 A Few Clouds FEW065 75.2 75.2 100% 73 29.94 0.0
06 00:55 Calm 9.00 Fair CLR 75.2 75.2 100% 73 29.93 0.0
06 00:35 Calm 9.00 Partly Cloudy SCT075 75.2 75.2 100% 73 29.92 0.0
06 00:15 Calm 9.00 Mostly Cloudy BKN080 75.2 75.2 100% 73 29.92 0.0
05 23:55 Calm 10.00 Mostly Cloudy BKN080 77 77 100% 78 29.92 0.0 0.01
05 23:35 Calm 10.00 Fair CLR 75.2 75.2 100% 73 29.93 0.0
05 23:15 Calm 10.00 Fair CLR 77 77 100% 78 29.93 0.0
05 22:55 Calm 10.00 Partly Cloudy SCT090 SCT110 77 77 100% 78 29.93 0.0
05 22:35 Calm 7.00 Mostly Cloudy BKN085 BKN110 77 77 100% 78 29.94 0.0
05 22:15 N 3 10.00 Fair CLR 77 77 100% 78 29.94 0.0
05 21:55 Calm 9.00 Fair CLR 77 77 100% 78 29.93 0.0
05 21:35 Calm 10.00 Fair CLR 77 77 100% 78 29.92 0.0
05 21:15 Calm 10.00 Fair CLR 77 77 100% 78 29.91 0.0
05 20:55 Calm 10.00 Fair CLR 77 77 100% 78 29.91 0.0 0.01
05 20:35 Calm 10.00 Fair CLR 78.8 78.8 100% 83 29.91 0.0
05 20:15 Calm 10.00 Fair CLR 78.8 78.8 100% 83 29.9 0.0
05 19:55 Calm 10.00 Fair CLR 78.8 78.8 100% 83 29.88 0.0
05 19:35 Calm 10.00 Fair CLR 78.8 78.8 100% 83 29.89 0.0
05 19:15 Calm 10.00 Fair CLR 80.6 78.8 94% 88 29.88 0.0
05 18:55 Calm 10.00 Fair CLR 80.6 77 89% 87 29.88 0.0
05 18:35 Calm 10.00 A Few Clouds FEW075 FEW090 80.6 78.8 94% 88 29.89 0.0
05 18:15 Calm 10.00 A Few Clouds FEW075 FEW090 82.4 78.8 89% 92 29.9 0.0
05 17:55 Calm 10.00 Fair CLR 82.4 78.8 89% 92 29.89 0.0
05 17:35 E 3 10.00 Fair CLR 82.4 77 84% 91 29.89 0.0
05 17:15 Calm 10.00 Fair CLR 82.4 75.2 79% 89 29.87 0.0
05 16:55 E 5 10.00 Thunderstorm in Vicinity CLR 78.8 75.2 89% 82 29.88 0.0 0.01
05 16:35 S 3 G 15 10.00 Thunderstorm FEW060 FEW075 FEW090 78.8 73.4 84% 82 29.89 0.0
05 16:15 SW 14 G 23 5.00 Thunderstorm Light Rain SCT065 SCT080 BKN095 77 73.4 89% 78 29.91 0.0
05 15:55 SE 12 0.50 Thunderstorm Rain SCT048 BKN065 78.8 75.2 89% 82 29.91 0.0 0.01
05 15:35 E 17 G 35 2.00 Light Rain OVC065 87.8 73.4 62% 96 29.89 0.0
05 15:15 W 3 10.00 Mostly Cloudy BKN070 100.4 73.4 42% 112 29.88 0.0
05 14:55 SW 5 10.00 Fair CLR 100.4 73.4 42% 112 29.88 0.0
05 12:55 Vrbl 7 10.00 Fair CLR 98.6 77 50% 115 29.93 0.0
05 12:35 SW 6 10.00 Fair CLR 96.8 75.2 50% 110 29.94 0.0
05 12:15 Vrbl 5 10.00 Fair CLR 95 77 56% 110 29.95 0.0
05 11:55 SE 3 10.00 Fair CLR 95 77 56% 110 29.95 0.0
05 11:35 Calm 10.00 Fair CLR 93.2 77 59% 107 29.96 0.0
05 11:15 Vrbl 3 10.00 Fair CLR 93.2 77 59% 107 29.97 0.0
05 10:55 Calm 10.00 Fair CLR 91.4 77 63% 105 29.98 0.0
05 10:35 Calm 10.00 Fair CLR 89.6 77 67% 103 29.98 0.0
05 10:15 Calm 10.00 Fair CLR 87.8 77 70% 100 29.98 0.0
05 09:55 Calm 10.00 Fair CLR 86 78.8 79% 99 29.98 0.0
05 09:35 Calm 10.00 Fair CLR 86 77 75% 97 29.99 0.0
05 09:15 Calm 10.00 Fair CLR 84.2 77 79% 94 29.99 0.0
05 08:55 Calm 10.00 Fair CLR 82.4 77 84% 91 30 0.0
05 08:35 Calm 10.00 Partly Cloudy SCT060 80.6 77 89% 87 30 0.0
05 08:15 Calm 10.00 Mostly Cloudy BKN060 BKN075 80.6 77 89% 87 30.01 0.0
05 07:55 Calm 10.00 Mostly Cloudy BKN060 BKN075 78.8 77 94% 83 30.01 0.0
05 07:35 Calm 10.00 Partly Cloudy SCT060 77 77 100% 78 30 0.0
05 07:15 Calm 10.00 Partly Cloudy SCT060 77 77 100% 78 30 0.0
05 06:55 Calm 10.00 Partly Cloudy SCT060 75.2 75.2 100% 73 29.99 0.0
05 06:35 Calm 9.00 Fair CLR 75.2 75.2 100% 73 29.98 0.0
05 06:15 Calm 9.00 Fair CLR 75.2 75.2 100% 73 29.98 0.0
05 05:55 Calm 10.00 Fair CLR 75.2 75.2 100% 73 29.97 0.0
05 05:35 Calm 9.00 Fair CLR 75.2 75.2 100% 73 29.97 0.0
05 05:15 Calm 10.00 Fair CLR 75.2 75.2 100% 73 29.96 0.0
05 04:55 Calm 10.00 Fair CLR 75.2 75.2 100% 73 29.96 0.0
05 04:35 Calm 10.00 Fair CLR 75.2 75.2 100% 73 29.96 0.0
05 04:15 Calm 10.00 Fair CLR 75.2 75.2 100% 73 29.95 0.0
05 03:55 Calm 10.00 Fair CLR 75.2 75.2 100% 73 29.95 0.0
05 03:35 Calm 10.00 Fair CLR 75.2 75.2 100% 73 29.95 0.0
05 03:15 Calm 10.00 Fair CLR 77 77 100% 78 29.95 0.0
05 02:55 Calm 10.00 Fair CLR 77 77 100% 78 29.95 0.0
05 02:35 Calm 10.00 Fair CLR 77 77 100% 78 29.95 0.0
05 02:15 Calm 10.00 Fair CLR 77 77 100% 78 29.95 0.0
05 01:55 Calm 10.00 Fair CLR 77 77 100% 78 29.95 0.0
05 01:35 Calm 10.00 Fair CLR 77 77 100% 78 29.95 0.0
05 01:15 Calm 10.00 Fair CLR 77 77 100% 78 29.96 0.0
05 00:55 Calm 10.00 Fair CLR 78.8 78.8 100% 83 29.96 0.0
05 00:35 Calm 10.00 Fair CLR 78.8 78.8 100% 83 29.97 0.0
05 00:15 Calm 10.00 Fair CLR 78.8 78.8 100% 83 29.97 0.0
04 23:55 Calm 10.00 Fair CLR 78.8 78.8 100% 83 29.96 0.0
04 23:35 Calm 10.00 Fair CLR 78.8 78.8 100% 83 29.97 0.0
04 23:15 Calm 10.00 Fair CLR 78.8 78.8 100% 83 29.96 0.0
04 22:55 Calm 10.00 Fair CLR 78.8 78.8 100% 83 29.97 0.0
04 22:35 Calm 10.00 Fair CLR 80.6 78.8 94% 88 29.98 0.0
04 22:15 Calm 10.00 Fair CLR 80.6 78.8 94% 88 29.98 0.0
04 21:55 Calm 10.00 Fair CLR 82.4 78.8 89% 92 29.99 0.0
04 21:35 Calm 10.00 Fair CLR 82.4 78.8 89% 92 29.99 0.0
04 21:15 Calm 10.00 Fair CLR 82.4 78.8 89% 92 29.99 0.0
04 20:55 Calm 10.00 Fair CLR 84.2 78.8 84% 96 29.98 0.0
04 20:35 Calm 10.00 Fair CLR 84.2 78.8 84% 96 29.98 0.0
04 20:15 Calm 10.00 Fair CLR 84.2 78.8 84% 96 29.98 0.0
04 19:55 Calm 10.00 Fair CLR 84.2 78.8 84% 96 29.97 0.0
04 19:35 Calm 10.00 A Few Clouds FEW070 86 78.8 79% 99 29.97 0.0
04 19:15 Calm 10.00 Partly Cloudy SCT070 87.8 78.8 75% 102 29.97 0.0
04 18:55 Calm 10.00 Fair CLR 87.8 78.8 75% 102 29.96 0.0
04 18:35 Calm 10.00 Fair CLR 87.8 77 70% 100 29.96 0.0
04 18:15 Calm 10.00 Fair CLR 89.6 77 67% 103 29.95 0.0
04 17:55 Calm 10.00 Fair CLR 93.2 77 59% 107 29.95 0.0
04 17:35 Calm 10.00 Fair CLR 95 75.2 53% 107 29.95 0.0
04 17:15 NE 5 10.00 A Few Clouds FEW065 96.8 73.4 47% 107 29.95 0.0
04 16:55 Vrbl 6 10.00 A Few Clouds FEW065 98.6 75.2 47% 112 29.94 0.0
04 16:35 SE 5 10.00 Fair CLR 98.6 73.4 44% 110 29.94 0.0
04 16:15 Calm 10.00 Fair CLR 98.6 73.4 44% 110 29.94 0.0
04 15:55 Vrbl 5 G 12 10.00 A Few Clouds FEW090 98.6 73.4 44% 110 29.95 0.0
04 15:35 SE 7 10.00 Fair CLR 98.6 73.4 44% 110 29.95 0.0
04 15:15 Vrbl 5 10.00 Fair CLR 98.6 73.4 44% 110 29.96 0.0
04 14:55 E 7 10.00 Fair CLR 98.6 73.4 44% 110 29.97 0.0
04 14:35 Vrbl 6 10.00 Fair CLR 96.8 73.4 47% 107 29.98 0.0
04 14:10 Calm 10.00 Fair CLR 96.8 73.4 47% 107 29.99 0.0
04 13:55 Vrbl 7 10.00 Fair CLR 96.8 73.4 47% 107 30 0.0
04 13:35 Calm 10.00 Fair CLR 96.8 75.2 50% 110 30.01 0.0
04 13:15 E 3 10.00 Fair CLR 96.8 75.2 50% 110 30.02 0.0
04 12:55 Vrbl 6 10.00 Fair CLR 95 75.2 53% 107 30.03 0.0
04 12:35 S 5 10.00 Fair CLR 95 75.2 53% 107 30.03 0.0
04 12:15 SW 3 10.00 Fair CLR 93.2 77 59% 107 30.04 0.0
04 11:55 Vrbl 5 10.00 Fair CLR 93.2 77 59% 107 30.05 0.0
04 11:35 Calm 10.00 Fair CLR 93.2 75.2 56% 105 30.05 0.0
04 11:15 Calm 10.00 Fair CLR 91.4 77 63% 105 30.06 0.0
04 10:35 S 5 10.00 Fair CLR 89.6 77 67% 103 30.06 0.0
04 10:15 W 6 10.00 Fair CLR 87.8 77 70% 100 30.06 0.0
04 09:55 Vrbl 3 10.00 Fair CLR 87.8 77 70% 100 30.06 0.0
04 09:35 Calm 10.00 Fair CLR 86 77 75% 97 30.06 0.0
04 09:15 Calm 10.00 Fair CLR 84.2 77 79% 94 30.06 0.0
04 08:55 Calm 10.00 Fair CLR 82.4 77 84% 91 30.06 0.0
04 08:35 NE 3 10.00 Fair CLR 80.6 77 89% 87 30.06 0.0
04 08:15 NE 5 10.00 Fair CLR 80.6 77 89% 87 30.06 0.0
04 07:55 N 5 10.00 Fair CLR 78.8 77 94% 83 30.06 0.0
04 07:35 Calm 10.00 Fair CLR 77 75.2 94% 78 30.05 0.0
04 07:15 Calm 10.00 Fair CLR 75.2 75.2 100% 73 30.05 0.0
04 06:35 Calm 10.00 Fair CLR 73.4 73.4 100% 30.04 0.0
04 06:15 Calm 10.00 Fair CLR 73.4 73.4 100% 30.04 0.0
04 05:55 Calm 10.00 Fair CLR 73.4 73.4 100% 30.03 0.0
04 05:35 Calm 10.00 Fair CLR 75.2 75.2 100% 73 30.03 0.0
04 05:15 Calm 10.00 Fair CLR 75.2 75.2 100% 73 30.02 0.0
04 04:55 Calm 10.00 Fair CLR 75.2 75.2 100% 73 30.02 0.0
04 04:35 Calm 10.00 Fair CLR 75.2 75.2 100% 73 30.01 0.0
04 04:15 Calm 10.00 Fair CLR 75.2 75.2 100% 73 30.01 0.0
04 03:55 Calm 10.00 Fair CLR 75.2 75.2 100% 73 30.01 0.0
04 03:35 Calm 10.00 Fair CLR 75.2 75.2 100% 73 30.01 0.0
04 03:15 Calm 10.00 Fair CLR 75.2 75.2 100% 73 30.01 0.0
04 02:55 Calm 10.00 Fair CLR 75.2 75.2 100% 73 30 0.0
04 02:35 Calm 10.00 Fair CLR 75.2 75.2 100% 73 30 0.0
04 02:10 Calm 10.00 Fair CLR 77 77 100% 78 30 0.0
04 01:55 Calm 10.00 Fair CLR 77 77 100% 78 30.01 0.0
04 01:35 Calm 10.00 Fair CLR 77 77 100% 78 30.01 0.0
04 01:15 Calm 10.00 Fair CLR 77 77 100% 78 30.01 0.0
04 00:55 Calm 10.00 Fair CLR 77 77 100% 78 30.01 0.0
04 00:35 Calm 10.00 Fair CLR 77 77 100% 78 30.01 0.0
04 00:15 Calm 10.00 Fair CLR 77 77 100% 78 30.02 0.0
03 23:55 Calm 10.00 Fair CLR 78.8 77 94% 83 30.02 0.0
03 23:35 Calm 10.00 Fair CLR 78.8 77 94% 83 30.02 0.0
03 23:15 Calm 10.00 Fair CLR 78.8 77 94% 83 30.02 0.0
03 22:55 Calm 10.00 Fair CLR 78.8 77 94% 83 30.02 0.0
03 22:35 Calm 10.00 Fair CLR 78.8 77 94% 83 30.03 0.0
03 22:15 Calm 10.00 Fair CLR 80.6 77 89% 87 30.03 0.0
03 21:55 Calm 10.00 Fair CLR 80.6 77 89% 87 30.03 0.0
03 21:35 Calm 10.00 Fair CLR 80.6 77 89% 87 30.03 0.0
03 21:15 Calm 10.00 Fair CLR 82.4 77 84% 91 30.03 0.0
03 20:50 Calm 10.00 Fair CLR 82.4 77 84% 91 30.01 0.0
03 20:35 Calm 10.00 Fair CLR 84.2 77 79% 94 30.01 0.0
03 20:15 Calm 10.00 Fair CLR 84.2 77 79% 94 30 0.0
03 19:55 Calm 10.00 Fair CLR 86 77 75% 97 30 0.0
03 19:35 Calm 10.00 Fair CLR 86 75.2 70% 95 29.99 0.0
03 19:15 SW 3 10.00 Fair CLR 87.8 75.2 66% 98 29.98 0.0
03 18:55 SW 3 10.00 Fair CLR 89.6 75.2 63% 100 29.98 0.0
03 18:35 SW 5 10.00 Fair CLR 91.4 75.2 59% 103 29.98 0.0
03 18:15 Vrbl 7 10.00 Fair CLR 93.2 77 59% 107 29.98 0.0
03 17:55 Calm 10.00 Fair CLR 96.8 75.2 50% 110 29.97 0.0
03 17:35 Calm 10.00 Fair CLR 96.8 73.4 47% 107 29.97 0.0
03 17:15 NE 5 10.00 Fair CLR 98.6 73.4 44% 110 29.97 0.0
03 16:55 E 5 10.00 Fair CLR 98.6 73.4 44% 110 29.96 0.0
03 16:35 Vrbl 3 10.00 Fair CLR 98.6 73.4 44% 110 29.97 0.0
03 16:15 Calm 10.00 A Few Clouds FEW065 98.6 73.4 44% 110 29.96 0.0
03 15:55 Calm 10.00 Fair CLR 98.6 73.4 44% 110 29.97 0.0
03 15:35 E 7 10.00 Fair CLR 98.6 73.4 44% 110 29.98 0.0
03 15:15 Vrbl 3 10.00 Fair CLR 98.6 73.4 44% 110 29.99 0.0
03 14:55 Vrbl 6 10.00 Fair CLR 98.6 73.4 44% 110 29.99 0.0
03 14:35 S 5 10.00 A Few Clouds FEW070 96.8 73.4 47% 107 30 0.0
03 14:15 Vrbl 3 10.00 A Few Clouds FEW070 FEW090 98.6 73.4 44% 110 30.01 0.0
03 13:55 Calm 10.00 A Few Clouds FEW090 96.8 73.4 47% 107 30.01 0.0
03 13:35 E 8 10.00 Fair CLR 96.8 75.2 50% 110 30.02 0.0
03 13:15 S 7 10.00 Fair CLR 96.8 75.2 50% 110 30.03 0.0
03 12:55 Calm 10.00 Fair CLR 96.8 75.2 50% 110 30.03 0.0
03 12:35 Vrbl 6 10.00 Fair CLR 96.8 75.2 50% 110 30.04 0.0
03 12:15 Calm 10.00 Fair CLR 95 75.2 53% 107 30.05 0.0
03 11:55 Calm 10.00 Fair CLR 95 75.2 53% 107 30.06 0.0
03 11:35 Calm 10.00 Fair CLR 95 75.2 53% 107 30.07 0.0
03 11:15 N 5 10.00 Fair CLR 93.2 73.4 53% 103 30.08 0.0
03 10:55 Calm 10.00 Fair CLR 91.4 77 63% 105 30.08 0.0
03 10:35 Calm 10.00 Fair CLR 89.6 77 67% 103 30.08 0.0
03 10:15 Calm 10.00 Fair CLR 87.8 77 70% 100 30.08 0.0
03 09:55 N 3 10.00 Fair CLR 86 77 75% 97 30.08 0.0
03 09:35 Vrbl 3 10.00 Fair CLR 86 77 75% 97 30.08 0.0
03 09:15 N 5 10.00 Fair CLR 84.2 77 79% 94 30.08 0.0
03 08:55 NE 6 10.00 Fair CLR 82.4 77 84% 91 30.08 0.0
03 08:35 N 5 10.00 Fair CLR 82.4 77 84% 91 30.08 0.0
03 08:15 NE 3 10.00 Fair CLR 78.8 77 94% 83 30.08 0.0
03 07:55 N 5 10.00 Fair CLR 78.8 75.2 89% 82 30.08 0.0
03 07:35 NE 3 10.00 Fair CLR 77 75.2 94% 78 30.08 0.0
03 07:15 Calm 10.00 Fair CLR 75.2 75.2 100% 73 30.08 0.0
03 06:55 Calm 10.00 Fair CLR 73.4 73.4 100% 30.08 0.0
03 06:35 Calm 10.00 Fair CLR 73.4 73.4 100% 30.08 0.0
03 06:15 Calm 10.00 Fair CLR 73.4 73.4 100% 30.07 0.0
03 05:55 Calm 10.00 Fair CLR 73.4 73.4 100% 30.07 0.0
03 05:35 Calm 10.00 Fair CLR 73.4 73.4 100% 30.06 0.0
03 05:15 Calm 9.00 Fair CLR 73.4 73.4 100% 30.06 0.0
03 04:55 Calm 10.00 Fair CLR 73.4 73.4 100% 30.06 0.0
03 04:35 Calm 10.00 Fair CLR 73.4 73.4 100% 30.06 0.0
03 04:15 Calm 10.00 Fair CLR 73.4 73.4 100% 30.06 0.0
03 03:55 Calm 10.00 Fair CLR 73.4 73.4 100% 30.05 0.0
Date Time (cdt) Wind (mph) Vis. (mi.) Weather Sky Cond. Air Dwpt Max. Min. Relative Humidity Wind Chill (°F) Heat Index (°F) altimeter (in) sea level (mb) 1 hr 3 hr 6 hr
6 hour
Temperature (ºF) Pressure Precipitation (in)